Time;durP1;ratioP1;P1;durP2;ratioP2;P2;SDS_P1;SDS_P2;PMS_P1;PMS_P2;Temp;Humidity;BMP_temperature;BMP_pressure;BME280_temperature;BME280_humidity;BME280_pressure;Samples;Min_cycle;Max_cycle;Signal;HPM_P1;HPM_P2
2022/05/29 00:01:50;;;;;;;;;;;;;;;14.91;100.00;98954.44;5027420;28;19920;-53
2022/05/29 00:04:15;;;;;;;;;;;;;;;15.11;100.00;98953.44;5026052;28;19942;-56
2022/05/29 00:06:42;;;;;;;;;;;;;;;15.10;100.00;98943.97;5029583;28;19920;-56
2022/05/29 00:09:07;;;;;;;;;;;;;;;15.11;100.00;98945.66;5025620;28;19929;-56
2022/05/29 00:11:32;;;;;;;;;;;;;;;15.21;100.00;98952.03;5009632;28;19974;-57
2022/05/29 00:14:00;;;;;;;;;;;;;;;15.13;100.00;98946.44;5009315;28;19944;-57
2022/05/29 00:16:28;;;;;;;;;;;;;;;15.22;100.00;98945.94;5026680;28;19967;-57
2022/05/29 00:18:53;;;;;;;;;;;;;;;15.01;100.00;98946.13;5015420;28;20012;-57
2022/05/29 00:21:19;;;;;;;;;;;;;;;15.09;100.00;98942.31;5028120;28;19921;-57
2022/05/29 00:23:44;;;;;;;;;;;;;;;15.15;100.00;98939.41;5012764;28;19968;-57
2022/05/29 00:26:10;;;;;;;;;;;;;;;15.10;100.00;98938.78;5017005;28;20027;-57
2022/05/29 00:28:35;;;;;;;;;;;;;;;15.13;100.00;98934.28;5030579;28;20028;-57
2022/05/29 00:31:00;;;;;;;;;;;;;;;15.18;100.00;98932.28;5030029;28;19920;-57
2022/05/29 00:33:25;;;;;;;;;;;;;;;15.04;100.00;98934.75;5031680;28;20284;-57
2022/05/29 00:35:52;;;;;;;;;;;;;;;15.03;100.00;98927.91;5013207;28;19971;-57
2022/05/29 00:38:18;;;;;;;;;;;;;;;15.16;100.00;98935.88;5011745;28;20003;-57
2022/05/29 00:40:46;;;;;;;;;;;;;;;15.03;100.00;98939.13;5029028;28;20019;-57
2022/05/29 00:43:11;;;;;;;;;;;;;;;15.09;100.00;98931.94;5026579;28;19925;-57
2022/05/29 00:45:56;;;;;;;;;;;;;;;14.93;100.00;98932.72;5029850;28;19921;-57
2022/05/29 00:48:22;;;;;;;;;;;;;;;14.90;100.00;98925.09;5026045;28;19925;-57
2022/05/29 00:50:48;;;;;;;;;;;;;;;14.94;100.00;98929.22;5031525;28;19955;-57
2022/05/29 00:53:14;;;;;;;;;;;;;;;15.18;100.00;98926.25;5011473;28;19921;-57
2022/05/29 00:55:40;;;;;;;;;;;;;;;15.27;100.00;98930.97;5010386;28;19920;-55
2022/05/29 00:58:05;;;;;;;;;;;;;;;15.18;100.00;98921.06;5032677;28;19931;-57
2022/05/29 01:00:31;;;;;;;;;;;;;;;15.31;100.00;98916.94;5011267;28;19951;-57
2022/05/29 01:02:59;;;;;;;;;;;;;;;15.35;100.00;98920.19;5031208;28;19917;-57
2022/05/29 01:05:25;;;;;;;;;;;;;;;15.32;100.00;98908.22;5029688;28;19965;-57
2022/05/29 01:07:52;;;;;;;;;;;;;;;15.18;100.00;98902.91;5011524;28;19920;-57
2022/05/29 01:10:17;;;;;;;;;;;;;;;15.24;100.00;98900.00;5027422;28;19921;-57
2022/05/29 01:12:52;;;;;;;;;;;;;;;15.05;100.00;98911.34;5031586;28;19932;-57
2022/05/29 01:15:22;;;;;;;;;;;;;;;15.15;100.00;98903.09;5031438;28;19920;-57
2022/05/29 01:17:51;;;;;;;;;;;;;;;15.33;100.00;98894.34;5011228;28;19975;-58
2022/05/29 01:20:35;;;;;;;;;;;;;;;15.31;100.00;98895.34;5031527;28;19971;-57
2022/05/29 01:23:15;;;;;;;;;;;;;;;15.25;100.00;98892.13;5027027;28;20011;-57
2022/05/29 01:25:59;;;;;;;;;;;;;;;15.41;100.00;98888.72;5027447;28;19920;-57
2022/05/29 01:28:43;;;;;;;;;;;;;;;15.08;100.00;98888.78;5026539;28;19956;-56
2022/05/29 01:31:11;;;;;;;;;;;;;;;15.16;100.00;98891.78;5010855;28;19920;-57
2022/05/29 01:33:41;;;;;;;;;;;;;;;15.39;100.00;98883.59;5029731;28;19947;-57
2022/05/29 01:36:09;;;;;;;;;;;;;;;15.25;100.00;98881.75;5007255;28;19925;-57
2022/05/29 01:38:40;;;;;;;;;;;;;;;15.31;100.00;98887.56;5007047;28;19935;-57
2022/05/29 01:41:10;;;;;;;;;;;;;;;15.09;100.00;98895.63;5011751;28;19917;-57
2022/05/29 01:43:38;;;;;;;;;;;;;;;14.63;100.00;98894.47;5011107;28;19956;-56
2022/05/29 01:46:21;;;;;;;;;;;;;;;15.15;100.00;98884.94;5008493;28;19932;-56
2022/05/29 01:48:46;;;;;;;;;;;;;;;15.37;100.00;98880.28;5012254;28;19925;-57
2022/05/29 01:51:16;;;;;;;;;;;;;;;15.22;100.00;98876.72;5026782;28;19944;-57
2022/05/29 01:53:42;;;;;;;;;;;;;;;15.26;100.00;98872.22;5010955;28;19924;-57
2022/05/29 01:56:12;;;;;;;;;;;;;;;15.22;100.00;98875.91;5009385;28;20333;-56
2022/05/29 01:58:39;;;;;;;;;;;;;;;15.04;100.00;98872.53;5025048;28;19934;-57
2022/05/29 02:01:05;;;;;;;;;;;;;;;15.15;100.00;98874.56;5012491;28;19992;-56
2022/05/29 02:03:32;;;;;;;;;;;;;;;15.22;100.00;98865.53;5008606;28;19932;-56
2022/05/29 02:05:58;;;;;;;;;;;;;;;15.25;100.00;98870.53;5010924;28;20471;-57
2022/05/29 02:08:26;;;;;;;;;;;;;;;15.28;100.00;98862.63;5010965;28;19929;-56
2022/05/29 02:10:54;;;;;;;;;;;;;;;15.32;100.00;98865.88;5027986;28;20428;-57
2022/05/29 02:13:46;;;;;;;;;;;;;;;14.66;100.00;98871.91;5028603;28;19994;-57
2022/05/29 02:16:22;;;;;;;;;;;;;;;14.81;100.00;98866.78;5026042;28;20517;-57
2022/05/29 02:18:50;;;;;;;;;;;;;;;15.05;100.00;98867.25;5008706;28;19928;-57
2022/05/29 02:21:28;;;;;;;;;;;;;;;15.01;100.00;98864.91;5024488;28;19928;-57
2022/05/29 02:23:54;;;;;;;;;;;;;;;15.25;100.00;98844.59;5009032;28;20289;-56
2022/05/29 02:26:21;;;;;;;;;;;;;;;14.87;100.00;98855.25;5011107;28;19960;-57
2022/05/29 02:28:48;;;;;;;;;;;;;;;14.89;100.00;98858.59;5013524;28;19924;-57
2022/05/29 02:31:32;;;;;;;;;;;;;;;15.04;100.00;98855.19;5015244;28;19921;-57
2022/05/29 02:34:12;;;;;;;;;;;;;;;15.08;100.00;98845.50;5032261;28;19974;-58
2022/05/29 02:36:40;;;;;;;;;;;;;;;15.04;100.00;98850.00;5033352;28;19920;-58
2022/05/29 02:39:14;;;;;;;;;;;;;;;14.99;100.00;98841.63;5010240;28;19921;-57
2022/05/29 02:41:46;;;;;;;;;;;;;;;15.05;100.00;98843.06;5027937;28;19928;-57
2022/05/29 02:44:23;;;;;;;;;;;;;;;14.80;100.00;98848.69;5032173;28;20417;-57
2022/05/29 02:47:11;;;;;;;;;;;;;;;14.97;100.00;98840.06;5030520;28;20274;-57
2022/05/29 02:49:38;;;;;;;;;;;;;;;14.95;100.00;98840.13;5015367;28;20343;-57
2022/05/29 02:52:08;;;;;;;;;;;;;;;15.09;100.00;98833.38;5011693;28;20039;-57
2022/05/29 02:54:34;;;;;;;;;;;;;;;14.99;100.00;98840.81;5028598;28;20790;-57
2022/05/29 02:57:00;;;;;;;;;;;;;;;15.03;100.00;98844.91;5030522;28;19921;-57
2022/05/29 02:59:29;;;;;;;;;;;;;;;14.76;100.00;98836.81;5033891;28;20283;-57
2022/05/29 03:01:56;;;;;;;;;;;;;;;14.62;100.00;98840.97;5012750;28;19925;-57
2022/05/29 03:04:21;;;;;;;;;;;;;;;14.40;100.00;98838.56;5007592;28;19978;-57
2022/05/29 03:06:53;;;;;;;;;;;;;;;14.48;100.00;98838.19;5031471;28;19921;-57
2022/05/29 03:09:37;;;;;;;;;;;;;;;14.11;100.00;98845.19;5012550;28;19928;-57
2022/05/29 03:12:04;;;;;;;;;;;;;;;14.10;100.00;98840.94;5029546;28;20417;-56
2022/05/29 03:14:35;;;;;;;;;;;;;;;14.45;100.00;98840.94;5014351;28;19970;-56
2022/05/29 03:17:11;;;;;;;;;;;;;;;14.52;100.00;98834.53;5028632;28;19931;-57
2022/05/29 03:19:48;;;;;;;;;;;;;;;14.60;100.00;98835.00;5026802;28;19921;-55
2022/05/29 03:22:19;;;;;;;;;;;;;;;14.78;100.00;98825.47;5010174;28;19921;-57
2022/05/29 03:24:45;;;;;;;;;;;;;;;14.65;100.00;98819.22;5025461;28;19925;-56
2022/05/29 03:27:12;;;;;;;;;;;;;;;14.68;100.00;98813.03;5012124;28;19943;-56
2022/05/29 03:29:42;;;;;;;;;;;;;;;14.38;100.00;98822.28;5010674;28;19935;-56
2022/05/29 03:32:08;;;;;;;;;;;;;;;14.01;100.00;98828.44;5007927;28;19925;-57
2022/05/29 03:34:33;;;;;;;;;;;;;;;14.36;100.00;98821.50;5007066;28;20721;-56
2022/05/29 03:36:58;;;;;;;;;;;;;;;14.55;100.00;98824.06;5025982;28;19967;-56
2022/05/29 03:39:23;;;;;;;;;;;;;;;14.58;100.00;98818.69;5028212;28;19929;-56
2022/05/29 03:41:49;;;;;;;;;;;;;;;14.56;100.00;98814.53;5022561;28;20378;-55
2022/05/29 03:44:16;;;;;;;;;;;;;;;14.32;100.00;98824.31;5008344;28;19975;-55
2022/05/29 03:46:42;;;;;;;;;;;;;;;14.40;100.00;98817.03;5008278;28;20692;-54
2022/05/29 03:49:08;;;;;;;;;;;;;;;14.43;100.00;98820.28;5025608;28;19956;-51
2022/05/29 03:51:34;;;;;;;;;;;;;;;14.77;100.00;98820.34;5026544;28;20008;-50
2022/05/29 03:54:00;;;;;;;;;;;;;;;14.83;100.00;98818.28;5006024;28;20011;-52
2022/05/29 03:56:25;;;;;;;;;;;;;;;14.69;100.00;98812.97;5026944;28;19928;-53
2022/05/29 03:58:50;;;;;;;;;;;;;;;15.05;100.00;98805.00;5013908;28;21033;-53
2022/05/29 04:01:15;;;;;;;;;;;;;;;14.96;100.00;98808.09;5027384;28;19921;-51
2022/05/29 04:03:41;;;;;;;;;;;;;;;14.81;100.00;98809.72;5027659;28;19942;-51
2022/05/29 04:06:06;;;;;;;;;;;;;;;14.43;100.00;98814.25;5024918;28;20330;-51
2022/05/29 04:14:00;;;;;;;;;;;;;;;13.50;100.00;98817.06;5009367;28;20050;-48
2022/05/29 04:16:25;;;;;;;;;;;;;;;13.19;100.00;98808.13;5008376;28;20012;-50
2022/05/29 04:18:50;;;;;;;;;;;;;;;13.49;100.00;98810.22;5026733;28;20047;-50
2022/05/29 04:21:15;;;;;;;;;;;;;;;12.93;100.00;98812.75;5025236;28;19956;-49
2022/05/29 04:23:41;;;;;;;;;;;;;;;12.93;100.00;98811.88;5026309;28;19956;-51
2022/05/29 04:26:07;;;;;;;;;;;;;;;12.50;100.00;98804.28;5026323;28;20594;-50
2022/05/29 04:28:32;;;;;;;;;;;;;;;12.16;100.00;98814.31;5025819;28;19932;-52
2022/05/29 04:30:58;;;;;;;;;;;;;;;12.26;100.00;98805.31;5024239;28;19920;-50
2022/05/29 04:33:23;;;;;;;;;;;;;;;12.61;100.00;98815.88;5028340;28;20374;-53
2022/05/29 04:35:50;;;;;;;;;;;;;;;12.85;100.00;98806.22;5027070;28;19921;-53
2022/05/29 04:38:16;;;;;;;;;;;;;;;12.58;100.00;98811.69;5025617;28;20454;-53
2022/05/29 04:40:41;;;;;;;;;;;;;;;12.55;100.00;98807.50;5026993;28;19921;-53
2022/05/29 04:43:07;;;;;;;;;;;;;;;13.26;100.00;98814.69;5027810;28;20462;-54
2022/05/29 04:45:33;;;;;;;;;;;;;;;13.27;100.00;98807.75;5011011;28;19917;-53
2022/05/29 04:47:58;;;;;;;;;;;;;;;13.14;100.00;98808.34;5026293;28;19943;-53
2022/05/29 04:50:23;;;;;;;;;;;;;;;12.81;100.00;98805.50;5010076;28;19936;-52
2022/05/29 04:52:50;;;;;;;;;;;;;;;13.26;100.00;98798.34;5027417;28;19920;-53
2022/05/29 04:55:16;;;;;;;;;;;;;;;13.47;100.00;98797.38;5027347;28;19925;-53
2022/05/29 04:57:41;;;;;;;;;;;;;;;14.48;100.00;98788.13;5024012;28;19928;-49
2022/05/29 05:00:06;;;;;;;;;;;;;;;14.84;100.00;98782.81;5028353;28;19922;-51
2022/05/29 05:02:32;;;;;;;;;;;;;;;14.29;100.00;98790.81;5028254;28;19921;-51
2022/05/29 05:04:57;;;;;;;;;;;;;;;14.80;100.00;98781.28;5028192;28;19921;-49
2022/05/29 05:07:22;;;;;;;;;;;;;;;14.29;100.00;98786.47;5010565;28;20019;-52
2022/05/29 05:09:48;;;;;;;;;;;;;;;14.01;100.00;98787.03;5026904;28;19947;-50
2022/05/29 05:12:13;;;;;;;;;;;;;;;14.78;100.00;98786.56;5029409;28;19932;-52
2022/05/29 05:14:38;;;;;;;;;;;;;;;14.56;100.00;98784.25;5027943;28;19925;-51
2022/05/29 05:17:04;;;;;;;;;;;;;;;15.02;100.00;98781.81;5028713;28;19925;-51
2022/05/29 05:19:29;;;;;;;;;;;;;;;14.20;100.00;98780.00;5028286;28;20254;-53
2022/05/29 05:21:54;;;;;;;;;;;;;;;13.57;100.00;98787.41;5027106;28;19975;-52
2022/05/29 05:24:20;;;;;;;;;;;;;;;14.12;100.00;98789.91;5025732;28;20363;-51
2022/05/29 05:26:45;;;;;;;;;;;;;;;14.91;100.00;98778.97;5027050;28;20650;-51
2022/05/29 05:29:11;;;;;;;;;;;;;;;15.16;100.00;98777.66;5026886;28;19955;-52
2022/05/29 05:31:36;;;;;;;;;;;;;;;15.17;100.00;98774.16;5025256;28;19963;-51
2022/05/29 05:34:02;;;;;;;;;;;;;;;14.78;100.00;98777.94;5028325;28;20044;-53
2022/05/29 05:36:27;;;;;;;;;;;;;;;14.52;100.00;98772.34;5032446;28;20075;-53
2022/05/29 05:38:53;;;;;;;;;;;;;;;14.96;100.00;98770.94;5011582;28;19991;-53
2022/05/29 05:41:19;;;;;;;;;;;;;;;14.43;100.00;98780.59;5028878;28;19931;-53
2022/05/29 05:43:44;;;;;;;;;;;;;;;14.32;100.00;98775.09;5009058;28;19925;-52
2022/05/29 05:46:10;;;;;;;;;;;;;;;14.40;100.00;98778.16;5028893;28;20031;-53
2022/05/29 05:48:36;;;;;;;;;;;;;;;13.25;100.00;98791.47;5027475;28;20011;-53
2022/05/29 05:51:02;;;;;;;;;;;;;;;13.79;100.00;98790.66;5029309;28;20378;-52
2022/05/29 05:53:27;;;;;;;;;;;;;;;12.96;100.00;98791.09;5031040;28;20011;-54
2022/05/29 05:55:52;;;;;;;;;;;;;;;12.67;100.00;98794.94;5026912;28;20739;-54
2022/05/29 05:58:17;;;;;;;;;;;;;;;12.87;100.00;98794.06;5031857;28;20267;-50
2022/05/29 06:00:43;;;;;;;;;;;;;;;13.72;100.00;98786.69;5034500;28;19921;-49
2022/05/29 06:03:08;;;;;;;;;;;;;;;13.94;100.00;98788.25;5028320;28;19925;-53
2022/05/29 06:05:34;;;;;;;;;;;;;;;14.78;100.00;98778.78;5029823;28;19921;-50
2022/05/29 06:07:59;;;;;;;;;;;;;;;14.99;100.00;98771.63;5029938;28;19920;-52
2022/05/29 06:10:24;;;;;;;;;;;;;;;15.26;100.00;98781.44;5037488;28;20633;-49
2022/05/29 06:12:50;;;;;;;;;;;;;;;15.48;100.00;98773.28;5025990;28;20386;-49
2022/05/29 06:15:15;;;;;;;;;;;;;;;15.18;100.00;98781.00;5031019;28;21552;-52
2022/05/29 06:17:40;;;;;;;;;;;;;;;13.99;100.00;98794.03;5031231;28;19920;-52
2022/05/29 06:20:07;;;;;;;;;;;;;;;14.30;100.00;98788.16;5031325;28;19955;-49
2022/05/29 06:22:34;;;;;;;;;;;;;;;13.87;100.00;98799.81;5027286;28;19920;-52
2022/05/29 06:25:00;;;;;;;;;;;;;;;13.61;100.00;98791.53;5027759;28;19928;-49
2022/05/29 06:27:28;;;;;;;;;;;;;;;12.52;100.00;98794.72;5026952;28;20650;-50
2022/05/29 06:29:53;;;;;;;;;;;;;;;12.57;100.00;98784.19;5010766;28;19928;-51
2022/05/29 06:32:19;;;;;;;;;;;;;;;13.15;100.00;98781.56;5031284;28;19928;-53
2022/05/29 06:34:44;;;;;;;;;;;;;;;12.74;100.00;98784.25;5031490;28;19932;-53
2022/05/29 06:37:09;;;;;;;;;;;;;;;13.44;100.00;98786.34;5011469;28;19921;-50
2022/05/29 06:39:35;;;;;;;;;;;;;;;13.95;100.00;98782.97;5032768;28;19924;-49
2022/05/29 06:42:00;;;;;;;;;;;;;;;14.22;100.00;98785.09;4994869;28;20857;-51
2022/05/29 06:44:25;;;;;;;;;;;;;;;13.66;100.00;98789.59;5006479;28;20015;-52
2022/05/29 06:46:51;;;;;;;;;;;;;;;13.31;100.00;98775.72;5033097;28;19960;-51
2022/05/29 06:49:17;;;;;;;;;;;;;;;13.14;100.00;98785.06;5025167;28;20010;-49
2022/05/29 06:51:42;;;;;;;;;;;;;;;13.26;100.00;98777.66;5029630;28;19920;-48
2022/05/29 06:54:08;;;;;;;;;;;;;;;12.68;100.00;98776.81;5027906;28;20290;-50
2022/05/29 06:56:33;;;;;;;;;;;;;;;13.48;100.00;98772.31;5029592;28;19920;-50
2022/05/29 06:58:58;;;;;;;;;;;;;;;13.48;100.00;98778.34;5030699;28;20350;-48
2022/05/29 07:07:00;;;;;;;;;;;;;;;12.84;100.00;98782.13;5013622;28;20019;-48
2022/05/29 07:09:25;;;;;;;;;;;;;;;13.79;100.00;98772.53;5029637;28;20019;-50
2022/05/29 07:11:53;;;;;;;;;;;;;;;13.24;100.00;98769.97;5026785;28;19990;-50
2022/05/29 07:14:18;;;;;;;;;;;;;;;13.76;100.00;98775.28;4996889;28;19921;-49
2022/05/29 07:16:46;;;;;;;;;;;;;;;14.22;100.00;98773.00;5001641;28;19925;-51
2022/05/29 07:19:13;;;;;;;;;;;;;;;14.30;100.00;98771.75;5029350;28;19932;-49
2022/05/29 07:21:39;;;;;;;;;;;;;;;14.51;100.00;98781.03;5029160;28;19921;-50
2022/05/29 07:24:04;;;;;;;;;;;;;;;14.27;100.00;98777.09;5027923;28;19959;-52
2022/05/29 07:26:30;;;;;;;;;;;;;;;14.51;100.00;98777.63;5030806;28;20015;-51
2022/05/29 07:28:55;;;;;;;;;;;;;;;15.20;100.00;98776.56;5030885;28;20360;-49
2022/05/29 07:31:20;;;;;;;;;;;;;;;15.05;100.00;98780.81;5029301;28;20344;-50
2022/05/29 07:33:45;;;;;;;;;;;;;;;15.84;100.00;98774.75;5008157;28;19921;-51
2022/05/29 07:36:11;;;;;;;;;;;;;;;14.90;100.00;98769.53;5026447;28;20008;-53
2022/05/29 07:38:36;;;;;;;;;;;;;;;14.57;100.00;98775.56;5008197;28;20054;-53
2022/05/29 07:43:18;;;;;;;;;;;;;;;15.55;100.00;98763.41;5030238;28;19921;-51
2022/05/29 07:43:47;;;;;;;;;;;;;;;15.10;100.00;98767.59;5031874;28;20826;-53
2022/05/29 07:46:12;;;;;;;;;;;;;;;15.00;100.00;98773.28;5033129;28;19973;-55
2022/05/29 07:48:37;;;;;;;;;;;;;;;14.29;100.00;98767.50;5026093;28;19925;-52
2022/05/29 07:51:03;;;;;;;;;;;;;;;14.63;100.00;98767.47;5026948;28;20000;-50
2022/05/29 07:53:28;;;;;;;;;;;;;;;14.05;100.00;98775.59;5030205;28;19944;-49
2022/05/29 07:55:53;;;;;;;;;;;;;;;14.05;100.00;98770.44;5030516;28;19928;-51
2022/05/29 07:58:18;;;;;;;;;;;;;;;14.00;100.00;98774.97;5028868;28;19917;-52
2022/05/29 08:00:43;;;;;;;;;;;;;;;14.35;100.00;98777.56;5030179;28;19925;-50
2022/05/29 08:03:10;;;;;;;;;;;;;;;14.15;100.00;98766.44;4995897;28;20729;-51
2022/05/29 08:05:37;;;;;;;;;;;;;;;14.50;100.00;98761.22;5030687;28;19928;-53
2022/05/29 08:08:04;;;;;;;;;;;;;;;15.22;100.00;98757.41;5030969;28;19920;-52
2022/05/29 08:10:29;;;;;;;;;;;;;;;14.37;100.00;98762.78;5024264;28;19948;-53
2022/05/29 08:12:55;;;;;;;;;;;;;;;14.91;100.00;98762.56;5031324;28;19987;-52
2022/05/29 08:15:20;;;;;;;;;;;;;;;14.71;100.00;98755.84;5029698;28;19927;-52
2022/05/29 08:17:46;;;;;;;;;;;;;;;14.26;100.00;98765.09;5013627;28;19938;-51
2022/05/29 08:20:12;;;;;;;;;;;;;;;14.75;100.00;98762.56;5028729;28;19931;-51
2022/05/29 08:22:37;;;;;;;;;;;;;;;14.42;100.00;98758.19;5011392;28;19913;-52
2022/05/29 08:30:37;;;;;;;;;;;;;;;13.15;100.00;98757.47;5030361;28;19978;-50
2022/05/29 08:33:03;;;;;;;;;;;;;;;13.47;100.00;98760.31;5029519;28;19999;-52
2022/05/29 08:35:29;;;;;;;;;;;;;;;13.87;100.00;98763.56;5031708;28;19917;-52
2022/05/29 08:37:54;;;;;;;;;;;;;;;13.89;100.00;98769.47;5028474;28;19935;-51
2022/05/29 08:40:19;;;;;;;;;;;;;;;14.53;100.00;98763.66;5030804;28;20047;-53
2022/05/29 08:42:44;;;;;;;;;;;;;;;15.47;100.00;98762.06;5027806;28;19961;-53
2022/05/29 08:45:14;;;;;;;;;;;;;;;15.87;100.00;98759.84;5032565;28;19916;-52
2022/05/29 08:47:40;;;;;;;;;;;;;;;16.30;100.00;98752.13;5029466;28;20402;-52
2022/05/29 08:50:15;;;;;;;;;;;;;;;16.14;100.00;98756.56;5027977;28;19929;-52
2022/05/29 08:52:40;;;;;;;;;;;;;;;15.62;100.00;98755.19;5005389;28;19917;-49
2022/05/29 08:55:11;;;;;;;;;;;;;;;15.81;100.00;98749.81;5028525;28;20420;-53
2022/05/29 08:57:48;;;;;;;;;;;;;;;15.14;100.00;98753.56;5012373;28;19995;-54
2022/05/29 09:00:17;;;;;;;;;;;;;;;15.32;100.00;98747.34;5027613;28;20158;-55
2022/05/29 09:02:45;;;;;;;;;;;;;;;16.05;100.00;98741.50;5028302;28;20389;-56
2022/05/29 09:05:20;;;;;;;;;;;;;;;15.51;100.00;98746.31;5025435;28;20647;-56
2022/05/29 09:07:46;;;;;;;;;;;;;;;14.83;100.00;98755.22;5011395;28;19917;-56
2022/05/29 09:10:13;;;;;;;;;;;;;;;13.70;100.00;98765.22;5024398;28;19932;-51
2022/05/29 09:12:44;;;;;;;;;;;;;;;13.86;100.00;98759.28;5008370;28;19921;-51
2022/05/29 09:15:11;;;;;;;;;;;;;;;14.11;100.00;98764.91;5007922;28;19917;-52
2022/05/29 09:17:42;;;;;;;;;;;;;;;14.80;100.00;98756.22;5026795;28;19923;-53
2022/05/29 09:20:10;;;;;;;;;;;;;;;13.65;100.00;98759.44;5011521;28;20409;-54
2022/05/29 09:22:36;;;;;;;;;;;;;;;13.76;100.00;98767.50;5008112;28;19971;-52
2022/05/29 09:25:08;;;;;;;;;;;;;;;14.38;100.00;98756.66;5027427;28;19971;-53
2022/05/29 09:27:33;;;;;;;;;;;;;;;14.52;100.00;98751.59;5029409;28;19963;-53
2022/05/29 09:29:59;;;;;;;;;;;;;;;14.35;100.00;98764.63;5011884;28;19928;-53
2022/05/29 09:32:28;;;;;;;;;;;;;;;15.21;100.00;98750.56;5028037;28;20377;-54
2022/05/29 09:35:05;;;;;;;;;;;;;;;15.14;100.00;98753.56;5009909;28;20326;-53
2022/05/29 09:37:30;;;;;;;;;;;;;;;15.18;100.00;98744.69;5026315;28;20145;-53
2022/05/29 09:39:57;;;;;;;;;;;;;;;15.44;100.00;98745.81;5027514;28;19917;-52
2022/05/29 09:42:23;;;;;;;;;;;;;;;16.01;100.00;98743.47;5009096;28;20004;-51
2022/05/29 09:45:06;;;;;;;;;;;;;;;16.37;100.00;98730.97;5027476;28;20040;-53
2022/05/29 09:50:16;;;;;;;;;;;;;;;18.19;100.00;98718.53;5027621;28;20020;-54
2022/05/29 09:52:43;;;;;;;;;;;;;;;17.06;100.00;98725.00;5028466;28;20609;-52
2022/05/29 09:55:28;;;;;;;;;;;;;;;17.17;100.00;98726.91;5027312;28;20007;-53
2022/05/29 09:57:57;;;;;;;;;;;;;;;16.96;100.00;98723.06;5007453;28;19920;-52
2022/05/29 10:00:37;;;;;;;;;;;;;;;17.70;100.00;98716.59;5008294;28;20015;-52
2022/05/29 10:03:02;;;;;;;;;;;;;;;18.58;100.00;98701.91;5007738;28;19927;-52
2022/05/29 10:05:28;;;;;;;;;;;;;;;19.38;100.00;98701.47;5024275;28;20281;-54
2022/05/29 10:07:54;;;;;;;;;;;;;;;18.86;100.00;98705.25;5027798;28;19931;-54
2022/05/29 10:10:22;;;;;;;;;;;;;;;18.75;100.00;98695.53;5007267;28;19928;-55
2022/05/29 10:12:48;;;;;;;;;;;;;;;19.76;100.00;98691.81;5027180;28;19932;-54
2022/05/29 10:15:33;;;;;;;;;;;;;;;19.56;100.00;98682.81;5025546;28;19963;-55
2022/05/29 10:18:00;;;;;;;;;;;;;;;19.37;100.00;98693.78;5030274;28;19974;-54
2022/05/29 10:20:31;;;;;;;;;;;;;;;18.21;100.00;98698.41;5030825;28;20263;-55
2022/05/29 10:22:58;;;;;;;;;;;;;;;18.69;100.00;98692.53;5031162;28;19932;-55
2022/05/29 10:25:24;;;;;;;;;;;;;;;19.55;100.00;98687.19;5013162;28;19923;-53
2022/05/29 10:27:50;;;;;;;;;;;;;;;18.11;100.00;98692.16;5033277;28;19920;-55
2022/05/29 10:30:29;;;;;;;;;;;;;;;17.07;100.00;98705.84;5009132;28;19928;-55
2022/05/29 10:32:59;;;;;;;;;;;;;;;16.13;100.00;98721.13;5030382;28;20387;-56
2022/05/29 10:35:28;;;;;;;;;;;;;;;13.98;100.00;98750.91;5009071;28;20553;-56
2022/05/29 10:37:54;;;;;;;;;;;;;;;13.99;100.00;98747.41;5006814;28;19962;-55
2022/05/29 10:40:22;;;;;;;;;;;;;;;14.34;100.00;98737.84;5009007;28;20007;-53
2022/05/29 10:42:49;;;;;;;;;;;;;;;14.99;100.00;98740.50;5028729;28;20722;-53
2022/05/29 10:45:19;;;;;;;;;;;;;;;14.85;100.00;98736.06;5034875;28;19932;-55
2022/05/29 10:47:49;;;;;;;;;;;;;;;15.14;100.00;98732.81;5030335;28;19929;-53
2022/05/29 10:50:14;;;;;;;;;;;;;;;15.00;100.00;98736.97;5015435;28;20027;-52
2022/05/29 10:52:39;;;;;;;;;;;;;;;15.22;100.00;98728.03;5035300;28;20593;-53
2022/05/29 10:55:09;;;;;;;;;;;;;;;15.88;100.00;98719.97;5031619;28;19917;-52
2022/05/29 10:57:48;;;;;;;;;;;;;;;17.29;100.00;98720.13;5009797;28;19925;-53
2022/05/29 11:00:23;;;;;;;;;;;;;;;18.17;100.00;98704.78;5012927;28;21046;-53
2022/05/29 11:03:21;;;;;;;;;;;;;;;18.29;100.00;98700.50;5028710;28;19925;-51
2022/05/29 11:05:55;;;;;;;;;;;;;;;18.12;100.00;98696.44;5011269;28;19999;-52
2022/05/29 11:08:29;;;;;;;;;;;;;;;19.06;100.00;98690.75;5029424;28;19963;-52
2022/05/29 11:10:55;;;;;;;;;;;;;;;20.11;100.00;98683.06;5029776;28;19947;-51
2022/05/29 11:13:37;;;;;;;;;;;;;;;18.97;100.00;98675.75;5030451;28;19959;-50
2022/05/29 11:16:08;;;;;;;;;;;;;;;19.60;100.00;98677.22;5028526;28;19928;-53
2022/05/29 11:18:46;;;;;;;;;;;;;;;19.97;100.00;98671.88;5028010;28;19956;-53
2022/05/29 11:21:14;;;;;;;;;;;;;;;19.56;100.00;98665.34;5029193;28;20710;-53
2022/05/29 11:23:51;;;;;;;;;;;;;;;19.56;100.00;98662.72;5029952;28;19986;-54
2022/05/29 11:26:35;;;;;;;;;;;;;;;21.12;100.00;98658.59;5026977;28;20008;-55
2022/05/29 11:29:10;;;;;;;;;;;;;;;20.56;100.00;98663.00;5009188;28;19932;-56
2022/05/29 11:31:53;;;;;;;;;;;;;;;20.21;100.00;98653.50;5030072;28;19920;-55
2022/05/29 11:34:26;;;;;;;;;;;;;;;20.33;100.00;98650.88;5029492;28;20404;-54
2022/05/29 11:37:01;;;;;;;;;;;;;;;20.08;100.00;98646.72;5028384;28;19928;-53
2022/05/29 11:39:31;;;;;;;;;;;;;;;20.70;100.00;98651.47;5015507;28;19921;-53
2022/05/29 11:42:02;;;;;;;;;;;;;;;20.56;100.00;98646.47;5032067;28;20595;-52
2022/05/29 11:44:36;;;;;;;;;;;;;;;20.52;100.00;98645.03;5014674;28;19921;-55
2022/05/29 11:52:36;;;;;;;;;;;;;;;20.05;98.78;98643.38;5015043;28;19998;-55
2022/05/29 11:55:03;;;;;;;;;;;;;;;19.06;100.00;98654.22;5030708;28;20613;-54
2022/05/29 11:57:38;;;;;;;;;;;;;;;15.81;100.00;98671.91;5006881;28;19943;-55
2022/05/29 12:00:08;;;;;;;;;;;;;;;13.67;100.00;98681.72;5028163;28;19952;-51
2022/05/29 12:02:48;;;;;;;;;;;;;;;14.28;100.00;98683.78;5027173;28;19921;-56
2022/05/29 12:05:21;;;;;;;;;;;;;;;15.31;100.00;98692.97;5005537;28;20003;-58
2022/05/29 12:07:49;;;;;;;;;;;;;;;15.51;100.00;98694.41;5009555;28;19920;-57
2022/05/29 12:10:17;;;;;;;;;;;;;;;15.06;100.00;98689.97;5025121;28;20740;-56
2022/05/29 12:12:43;;;;;;;;;;;;;;;16.05;100.00;98692.16;5028195;28;19921;-52
2022/05/29 12:15:13;;;;;;;;;;;;;;;16.18;100.00;98680.13;5013285;28;19925;-53
2022/05/29 12:17:44;;;;;;;;;;;;;;;15.96;100.00;98684.91;5009268;28;19951;-54
2022/05/29 12:20:17;;;;;;;;;;;;;;;16.78;100.00;98671.22;5014275;28;19925;-53
2022/05/29 12:22:46;;;;;;;;;;;;;;;17.61;100.00;98671.16;5031788;28;20012;-52
2022/05/29 12:25:22;;;;;;;;;;;;;;;17.80;100.00;98657.72;5016493;28;20453;-54
2022/05/29 12:27:47;;;;;;;;;;;;;;;17.75;100.00;98665.84;5030817;28;19926;-54
2022/05/29 12:30:24;;;;;;;;;;;;;;;18.02;100.00;98646.72;5015934;28;19924;-53
2022/05/29 12:32:49;;;;;;;;;;;;;;;18.70;100.00;98648.09;5003671;28;19943;-52
2022/05/29 12:35:15;;;;;;;;;;;;;;;18.56;100.00;98645.59;5015472;28;20684;-52
2022/05/29 12:37:45;;;;;;;;;;;;;;;18.94;100.00;98647.28;5015836;28;20652;-53
2022/05/29 12:40:10;;;;;;;;;;;;;;;19.13;100.00;98644.16;5033402;28;20047;-53
2022/05/29 12:42:45;;;;;;;;;;;;;;;19.14;100.00;98641.47;5027376;28;19931;-53
2022/05/29 12:45:13;;;;;;;;;;;;;;;19.07;100.00;98639.38;5032295;28;19924;-53
2022/05/29 12:47:52;;;;;;;;;;;;;;;19.34;100.00;98641.75;5030908;28;20007;-51
2022/05/29 12:50:23;;;;;;;;;;;;;;;19.86;100.00;98643.13;5013654;28;19927;-52
2022/05/29 12:52:48;;;;;;;;;;;;;;;19.59;100.00;98631.19;5028634;28;19932;-52
2022/05/29 12:55:17;;;;;;;;;;;;;;;19.87;100.00;98634.34;5029658;28;20662;-53
2022/05/29 12:57:49;;;;;;;;;;;;;;;20.06;100.00;98625.91;5015032;28;20354;-50
2022/05/29 13:00:21;;;;;;;;;;;;;;;19.25;100.00;98629.38;5016068;28;20451;-52
2022/05/29 13:03:05;;;;;;;;;;;;;;;18.59;100.00;98632.34;5029336;28;19917;-52
2022/05/29 13:05:37;;;;;;;;;;;;;;;19.56;100.00;98626.16;5030629;28;19983;-53
2022/05/29 13:08:23;;;;;;;;;;;;;;;20.29;100.00;98626.75;5014710;28;20278;-54